AirNav   Jet Aviation Boston
 
 771 users online  

1F4 Madill Municipal Airport
Madill, Oklahoma, USA

GOING TO MADILL?


FAA INFORMATION EFFECTIVE 26 APRIL 2018

Location

FAA Identifier: 1F4
Lat/Long: 34-08-25.4470N / 096-48-43.3160W
34-08.424117N / 096-48.721933W
34.1404019 / -96.8120322
(estimated)
Elevation: 890 ft. / 271.3 m (surveyed)
Variation: 06E (1995)
From city: 3 miles NW of MADILL, OK
Time zone: UTC -5 (UTC -6 during Standard Time)
Zip code: 73446

Airport Operations

Airport use: Open to the public
Control tower: no
ARTCC: FORT WORTH CENTER
FSS: MC ALESTER FLIGHT SERVICE STATION
NOTAMs facility: MLC (NOTAM-D service available)
Attendance: UNATNDD
Wind indicator: lighted
Segmented circle: yes
Lights: MIRL RY 18/36 PRESET MED INTENSITY DUSK-0000. AFTER 0000 ACTVT - CTAF.
Beacon: white-green (lighted land airport)
Operates sunset to sunrise.

Airport Communications

CTAF: 122.9
WX AWOS-3 at ADM (14 nm NW): PHONE 580-389-5078
WX AWOS-3 at 1F0 (15 nm W): 118.15 (580-226-1536)
  • APCH/DEP SERVICE PROVIDED BY FORT WORTH ARTCC ON FREQS 124.75/323.0 (ARDMORE RCAG).

Nearby radio navigation aids

VOR radial/distance  VOR name  Freq  Var
ADMr098/18.2ARDMORE VORTAC116.7006E
URHr294/24.0TEXOMA VOR/DME114.3005E

 
NDB name  Hdg/Dist  Freq  Var  ID
ADDMO127/8.240006EAI .- ..
DENISON333/20.134106EDNI -.. -. ..

Airport Services

Airframe service: NONE
Powerplant service: NONE
Bottled oxygen: NONE
Bulk oxygen: NONE

Runway Information

Runway 18/36

Dimensions: 3005 x 60 ft. / 916 x 18 m
Surface: asphalt, in good condition
Weight bearing capacity: 
Single wheel: 8.0
Runway edge lights: medium intensity
RUNWAY 18  RUNWAY 36
Latitude: 34-08.670083N34-08.177800N
Longitude: 096-48.689133W096-48.755567W
Elevation: 862.0 ft.881.0 ft.
Gradient: 0.6%0.6%
Traffic pattern: leftleft
Runway heading: 180 magnetic, 186 true000 magnetic, 006 true
Markings: nonprecision, in fair conditionnonprecision, in fair condition
Visual slope indicator: 2-light PAPI on left (4.00 degrees glide path)2-light PAPI on left (4.00 degrees glide path)
PAPI OTS INDEFLY.
Runway end identifier lights: yes
LEFT SIDE REIL OTS INDEFLY.
yes
Touchdown point: yes, no lightsyes, no lights
Obstructions: 24 ft. trees, 630 ft. from runway, 145 ft. right of centerline, 17:1 slope to clear
+5 FT FENCE 0 FT FM RY END 178 FT LEFT.
3 ft. fence, 240 ft. from runway, 13:1 slope to clear
+5 FT FENCE 0 FT FM RY END 220 FT RIGHT.

Airport Ownership and Management from official FAA records

Ownership: Publicly-owned
Owner: CITY OF MADILL
CITY HALL, 201 E. OVERTON
MADILL, OK 73446
Phone 580-795-5586
Manager: DAVID SPROUSE
CITY HALL, 201 E. OVERTON
MADILL, OK 73446
Phone 580-795-5333

Airport Operational Statistics

Aircraft based on the field: 15
Single engine airplanes: 8
Multi engine airplanes: 7
    
Aircraft operations: avg 77/week *
62% local general aviation
38% transient general aviation
* for 12-month period ending 12 February 2016

Additional Remarks

+1694 FT TWR 6.2 MI SOUTH OF RY 36 END.

Instrument Procedures

NOTE: All procedures below are presented as PDF files. If you need a reader for these files, you should download the free Adobe Reader.

NOT FOR NAVIGATION. Please procure official charts for flight.
FAA instrument procedures published for use from 26 April 2018 at 901Z to 24 May 2018 at 0900Z.

 
IAPs - Instrument Approach Procedures
RNAV (GPS) RWY 18   download (185KB)
VOR/DME-A   download (152KB)
NOTE: Special Take-Off Minimums/Departure Procedures apply   download (131KB)

Other nearby airports with instrument procedures:

KADM - Ardmore Municipal Airport (14 nm NW)
1F0 - Ardmore Downtown Executive Airport (15 nm W)
KDUA - Durant Regional Airport - Eaker Field (24 nm SE)
KGYI - North Texas Regional Airport/Perrin Field (26 nm S)
KSWI - Sherman Municipal Airport (33 nm S)
 
Loc | Ops | Rwys | IFR | FBO | Links
Com | Nav | Svcs | Stats | Notes

AirNav Hotels Sweepstakes
 
Area around 1F4 (Madill Municipal Airport)
 
Road maps at: MapQuest Bing Google
 
Aerial photo
WARNING: Photo may not be current or correct
Aerial photo of 1F4 (Madill Municipal Airport)
Photo taken 10-Mar-2007

Do you have a better or more recent aerial photo of Madill Municipal Airport that you would like to share? If so, please send us your photo.

 
Sectional chart

 
Airport distance calculator
Flying to Madill Municipal Airport? Find the distance to fly.

From to 1F4

Sunrise and sunset
Times for 20-May-2018
 Local
(UTC-5)
 Zulu
(UTC)
Morning civil twilight05:5510:55
Sunrise06:2311:23
Sunset20:2401:24
Evening civil twilight20:5301:53

Current date and time
Zulu (UTC)  20-May-2018 13:06:25
Local (UTC-5)  20-May-2018 08:06:25
 
METAR
KADM 
13nm NW 
201255Z 00000KT 10SM SKC 19/18 A3002
K1F0 
15nm W 
201255Z AUTO 00000KT 10SM -RA SCT030 SCT042 SCT065 18/17 A3003 RMK AO2 P0001 TSNO
KDUA 
23nm SE 
201255Z AUTO 36003KT 10SM SCT030 SCT042 21/17 A3002 RMK AO2
KGYI 
26nm S 
201255Z AUTO 05004KT 10SM CLR 21/17 A3003 RMK AO2 LTG DSNT S AND SW T02140173
TAF
NOTAMs
Click for the latest NOTAMs
NOTAMs are issued by the DoD/FAA and will open in a separate window not controlled by AirNav.

 

 
 

Would you like to see your business listed on this page?

 If your business provides an interesting product or service to pilots, flight crews, aircraft, or users of the Madill Municipal Airport, you should consider listing it here.  To start the listing process, click on the button below
 
Add a business
 

Other Pages about Madill Municipal Airport

Update a link
 
Copyright © AirNav, LLC. All rights reserved. Privacy Policy  Contact